createdAt,value
2017-12-11T00:00:14.048Z,969.49
2017-12-11T00:01:14.059Z,969.54
2017-12-11T00:02:14.067Z,969.6
2017-12-11T00:03:14.080Z,969.53
2017-12-11T00:04:14.088Z,969.57
2017-12-11T00:05:14.100Z,969.55
2017-12-11T00:06:14.110Z,969.58
2017-12-11T00:07:14.120Z,969.56
2017-12-11T00:08:14.132Z,969.55
2017-12-11T00:09:14.142Z,969.59
2017-12-11T00:10:14.153Z,969.6
2017-12-11T00:11:14.162Z,969.62
2017-12-11T00:12:14.174Z,969.71
2017-12-11T00:13:14.184Z,969.68
2017-12-11T00:14:14.226Z,969.72
2017-12-11T00:15:14.205Z,969.74
2017-12-11T00:16:14.215Z,969.83
2017-12-11T00:17:14.227Z,969.87
2017-12-11T00:18:14.238Z,969.9
2017-12-11T00:19:14.248Z,969.88
2017-12-11T00:20:14.258Z,969.9
2017-12-11T00:21:14.267Z,969.91
2017-12-11T00:22:14.280Z,969.98
2017-12-11T00:23:14.288Z,970
2017-12-11T00:24:14.301Z,969.97
2017-12-11T00:25:14.310Z,969.95
2017-12-11T00:26:14.322Z,969.86
2017-12-11T00:27:14.330Z,969.89
2017-12-11T00:28:14.343Z,970
2017-12-11T00:29:14.355Z,970.04
2017-12-11T00:30:14.363Z,970.04
2017-12-11T00:31:14.377Z,970.01
2017-12-11T00:32:14.384Z,970
2017-12-11T00:33:14.398Z,969.99
2017-12-11T00:34:14.404Z,969.92
2017-12-11T00:35:14.415Z,969.91
2017-12-11T00:36:14.428Z,969.86
2017-12-11T00:37:14.438Z,969.82
2017-12-11T00:38:14.448Z,969.77
2017-12-11T00:39:14.458Z,969.73
2017-12-11T00:40:14.471Z,969.65
2017-12-11T00:41:14.487Z,969.7
2017-12-11T00:42:14.492Z,969.68
2017-12-11T00:43:14.504Z,969.67
2017-12-11T00:44:14.512Z,969.63
2017-12-11T00:45:14.522Z,969.61
2017-12-11T00:46:14.536Z,969.62
2017-12-11T00:47:14.546Z,969.56
2017-12-11T00:48:14.557Z,969.53
2017-12-11T00:49:14.566Z,969.53
2017-12-11T00:50:14.577Z,969.48
2017-12-11T00:51:14.590Z,969.53
2017-12-11T00:52:14.599Z,969.43
2017-12-11T00:53:14.611Z,969.45
2017-12-11T00:54:14.621Z,969.44
2017-12-11T00:55:14.632Z,969.43
2017-12-11T00:56:14.641Z,969.44
2017-12-11T00:57:14.652Z,969.46
2017-12-11T00:58:14.663Z,969.42
2017-12-11T00:59:14.675Z,969.39
2017-12-11T01:00:14.686Z,969.43
2017-12-11T01:01:14.697Z,969.54
2017-12-11T01:02:14.707Z,969.52
2017-12-11T01:03:14.721Z,969.52
2017-12-11T01:04:14.730Z,969.51
2017-12-11T01:05:14.738Z,969.53
2017-12-11T01:06:14.751Z,969.64
2017-12-11T01:07:14.767Z,969.59
2017-12-11T01:08:14.771Z,969.67
2017-12-11T01:09:14.785Z,969.75
2017-12-11T01:10:14.793Z,969.79
2017-12-11T01:11:14.801Z,969.83
2017-12-11T01:12:14.816Z,969.85
2017-12-11T01:13:14.828Z,969.84
2017-12-11T01:14:14.842Z,969.86
2017-12-11T01:15:14.846Z,969.9
2017-12-11T01:16:14.858Z,969.95
2017-12-11T01:17:14.874Z,969.87
2017-12-11T01:18:14.878Z,970.04
2017-12-11T01:19:14.892Z,970.12
2017-12-11T01:20:14.902Z,970.14
2017-12-11T01:21:14.912Z,970.06
2017-12-11T01:22:14.923Z,970.09
2017-12-11T01:23:14.933Z,970.1
2017-12-11T01:24:14.947Z,970.14
2017-12-11T01:25:14.955Z,970.23
2017-12-11T01:26:14.967Z,970.29
2017-12-11T01:27:14.976Z,970.3
2017-12-11T01:28:14.989Z,970.39
2017-12-11T01:29:14.998Z,970.4
2017-12-11T01:30:15.010Z,970.42
2017-12-11T01:31:15.021Z,970.43
2017-12-11T01:32:15.042Z,970.39
2017-12-11T01:33:15.046Z,970.43
2017-12-11T01:34:15.059Z,970.47
2017-12-11T01:35:15.070Z,970.56
2017-12-11T01:36:15.079Z,970.55
2017-12-11T01:37:15.088Z,970.55
2017-12-11T01:38:15.099Z,970.61
2017-12-11T01:39:15.111Z,970.58
2017-12-11T01:40:15.122Z,970.61
2017-12-11T01:41:15.132Z,970.6
2017-12-11T01:42:15.142Z,970.61
2017-12-11T01:43:15.154Z,970.63
2017-12-11T01:44:15.164Z,970.66
2017-12-11T01:45:15.177Z,970.77
2017-12-11T01:46:15.186Z,970.76
2017-12-11T01:47:15.198Z,970.74
2017-12-11T01:48:15.208Z,970.71
2017-12-11T01:49:15.223Z,970.72
2017-12-11T01:50:15.233Z,970.67
2017-12-11T01:51:15.242Z,970.66
2017-12-11T01:52:15.254Z,970.64
2017-12-11T01:53:15.263Z,970.69
2017-12-11T01:54:15.281Z,970.82
2017-12-11T01:55:15.285Z,970.75
2017-12-11T01:56:15.297Z,970.77
2017-12-11T01:57:15.313Z,970.83
2017-12-11T01:58:15.318Z,970.79
2017-12-11T01:59:15.329Z,970.82
2017-12-11T02:00:15.339Z,970.84
2017-12-11T02:01:15.354Z,970.83
2017-12-11T02:02:15.363Z,970.8
2017-12-11T02:03:15.374Z,970.79
2017-12-11T02:04:15.384Z,970.84
2017-12-11T02:05:15.397Z,970.76
2017-12-11T02:06:15.406Z,970.74
2017-12-11T02:07:15.418Z,970.81
2017-12-11T02:08:15.429Z,970.83
2017-12-11T02:09:15.438Z,970.82
2017-12-11T02:10:15.450Z,970.79
2017-12-11T02:11:15.462Z,970.8
2017-12-11T02:12:15.532Z,970.71
2017-12-11T02:13:15.485Z,970.72
2017-12-11T02:14:15.494Z,970.72
2017-12-11T02:15:15.507Z,970.79
2017-12-11T02:16:15.519Z,970.81
2017-12-11T02:17:15.528Z,970.81
2017-12-11T02:18:15.539Z,970.8
2017-12-11T02:19:15.550Z,970.74
2017-12-11T02:20:15.561Z,970.71
2017-12-11T02:21:15.573Z,970.62
2017-12-11T02:22:15.584Z,970.68
2017-12-11T02:23:15.597Z,970.75
2017-12-11T02:24:15.605Z,970.73
2017-12-11T02:25:15.617Z,970.68
2017-12-11T02:26:15.628Z,970.69
2017-12-11T02:27:15.640Z,970.78
2017-12-11T02:28:15.648Z,970.71
2017-12-11T02:29:15.668Z,970.67
2017-12-11T02:30:15.672Z,970.69
2017-12-11T02:31:15.687Z,970.68
2017-12-11T02:32:15.694Z,970.66
2017-12-11T02:33:15.705Z,970.59
2017-12-11T02:34:15.718Z,970.6
2017-12-11T02:35:15.727Z,970.62
2017-12-11T02:36:15.740Z,970.67
2017-12-11T02:37:15.750Z,970.62
2017-12-11T02:38:15.761Z,970.65
2017-12-11T02:39:15.772Z,970.65
2017-12-11T02:40:15.784Z,970.67
2017-12-11T02:41:15.800Z,970.7
2017-12-11T02:42:15.806Z,970.76
2017-12-11T02:43:15.816Z,970.65
2017-12-11T02:44:15.827Z,970.74
2017-12-11T02:45:15.840Z,970.72
2017-12-11T02:46:15.851Z,970.69
2017-12-11T02:47:15.862Z,970.7
2017-12-11T02:48:15.875Z,970.68
2017-12-11T02:49:15.884Z,970.75
2017-12-11T02:50:15.894Z,970.71
2017-12-11T02:51:15.905Z,970.72
2017-12-11T02:52:15.919Z,970.69
2017-12-11T02:53:15.928Z,970.74
2017-12-11T02:54:15.939Z,970.7
2017-12-11T02:55:15.956Z,970.7
2017-12-11T02:56:15.963Z,970.68
2017-12-11T02:57:15.980Z,970.68
2017-12-11T02:58:15.984Z,970.68
2017-12-11T02:59:15.995Z,970.65
2017-12-11T03:00:16.007Z,970.67
2017-12-11T03:01:16.018Z,970.72
2017-12-11T03:02:16.032Z,970.7
2017-12-11T03:03:16.041Z,970.7
2017-12-11T03:04:16.051Z,970.75
2017-12-11T03:05:16.062Z,970.77
2017-12-11T03:06:16.074Z,970.83
2017-12-11T03:07:16.086Z,970.91
2017-12-11T03:08:16.096Z,970.97
2017-12-11T03:09:16.110Z,970.95
2017-12-11T03:10:16.121Z,971.04
2017-12-11T03:11:16.131Z,971.02
2017-12-11T03:12:16.140Z,971.11
2017-12-11T03:13:16.153Z,971.08
2017-12-11T03:14:16.166Z,971.09
2017-12-11T03:15:16.176Z,971.16
2017-12-11T03:16:16.187Z,971.23
2017-12-11T03:17:16.198Z,971.23
2017-12-11T03:18:16.210Z,971.28
2017-12-11T03:19:16.225Z,971.33
2017-12-11T03:20:16.233Z,971.33
2017-12-11T03:21:16.244Z,971.3
2017-12-11T03:22:16.256Z,971.37
2017-12-11T03:23:16.265Z,971.35
2017-12-11T03:24:16.278Z,971.39
2017-12-11T03:25:16.289Z,971.31
2017-12-11T03:26:16.299Z,971.33
2017-12-11T03:27:16.313Z,971.22
2017-12-11T03:28:16.326Z,971.21
2017-12-11T03:29:16.335Z,971.24
2017-12-11T03:30:16.346Z,971.32
2017-12-11T03:31:16.358Z,971.34
2017-12-11T03:32:16.368Z,971.37
2017-12-11T03:33:16.378Z,971.48
2017-12-11T03:34:16.392Z,971.54
2017-12-11T03:35:16.401Z,971.54
2017-12-11T03:36:16.412Z,971.67
2017-12-11T03:37:16.430Z,971.65
2017-12-11T03:38:16.435Z,971.71
2017-12-11T03:39:16.447Z,971.76
2017-12-11T03:40:16.458Z,971.72
2017-12-11T03:41:16.471Z,971.77
2017-12-11T03:42:16.481Z,971.73
2017-12-11T03:43:16.493Z,971.82
2017-12-11T03:44:16.505Z,971.68
2017-12-11T03:45:16.515Z,971.76
2017-12-11T03:46:16.526Z,971.75
2017-12-11T03:47:16.539Z,971.7
2017-12-11T03:48:16.549Z,971.78
2017-12-11T03:49:16.561Z,971.77
2017-12-11T03:50:16.572Z,971.82
2017-12-11T03:51:16.585Z,971.86
2017-12-11T03:52:16.594Z,971.94
2017-12-11T03:53:16.605Z,971.9
2017-12-11T03:54:16.617Z,971.99
2017-12-11T03:55:16.629Z,972.04
2017-12-11T03:56:16.640Z,972.1
2017-12-11T03:57:16.650Z,972.15
2017-12-11T03:58:16.665Z,972.14
2017-12-11T03:59:16.674Z,972.13
2017-12-11T04:00:16.686Z,972.05
2017-12-11T04:01:16.696Z,972.15
2017-12-11T04:02:16.708Z,972.15
2017-12-11T04:03:16.719Z,972.23
2017-12-11T04:04:16.731Z,972.1
2017-12-11T04:05:16.742Z,972.14
2017-12-11T04:06:16.753Z,972.22
2017-12-11T04:07:16.766Z,972.26
2017-12-11T04:08:16.777Z,972.24
2017-12-11T04:09:16.789Z,972.24
2017-12-11T04:10:16.800Z,972.22
2017-12-11T04:11:16.815Z,972.37
2017-12-11T04:12:16.822Z,972.37
2017-12-11T04:13:16.838Z,972.47
2017-12-11T04:14:16.846Z,972.49
2017-12-11T04:15:16.861Z,972.41
2017-12-11T04:16:16.871Z,972.31
2017-12-11T04:17:16.878Z,972.52
2017-12-11T04:18:16.890Z,972.56
2017-12-11T04:19:16.902Z,972.55
2017-12-11T04:20:16.915Z,972.58
2017-12-11T04:21:16.925Z,972.59
2017-12-11T04:22:16.939Z,972.67
2017-12-11T04:23:16.947Z,972.72
2017-12-11T04:24:16.959Z,972.7
2017-12-11T04:25:16.971Z,972.78
2017-12-11T04:26:16.981Z,972.75
2017-12-11T04:27:16.994Z,972.84
2017-12-11T04:28:17.007Z,972.76
2017-12-11T04:29:17.021Z,972.74
2017-12-11T04:30:17.028Z,972.77
2017-12-11T04:31:17.040Z,972.86
2017-12-11T04:32:17.051Z,972.81
2017-12-11T04:33:17.062Z,972.91
2017-12-11T04:34:17.076Z,972.89
2017-12-11T04:35:17.087Z,972.93
2017-12-11T04:36:17.100Z,972.99
2017-12-11T04:37:17.109Z,973
2017-12-11T04:38:17.120Z,973.07
2017-12-11T04:39:17.131Z,973.01
2017-12-11T04:40:17.143Z,973.09
2017-12-11T04:41:17.160Z,973.09
2017-12-11T04:42:17.167Z,973.11
2017-12-11T04:43:17.177Z,973.2
2017-12-11T04:44:17.190Z,973.2
2017-12-11T04:45:17.201Z,973.15
2017-12-11T04:46:17.211Z,973.24
2017-12-11T04:47:17.222Z,973.18
2017-12-11T04:48:17.234Z,973.2
2017-12-11T04:49:17.247Z,973.24
2017-12-11T04:50:17.256Z,973.26
2017-12-11T04:51:17.270Z,973.26
2017-12-11T04:52:17.281Z,973.27
2017-12-11T04:53:17.293Z,973.25
2017-12-11T04:54:17.304Z,973.28
2017-12-11T04:55:17.315Z,973.25
2017-12-11T04:56:17.327Z,973.25
2017-12-11T04:57:17.338Z,973.21
2017-12-11T04:58:17.351Z,973.17
2017-12-11T04:59:17.362Z,973.19
2017-12-11T05:00:17.373Z,973.17
2017-12-11T05:01:17.384Z,973.25
2017-12-11T05:02:17.399Z,973.23
2017-12-11T05:03:17.411Z,973.22
2017-12-11T05:04:17.421Z,973.22
2017-12-11T05:05:17.431Z,973.27
2017-12-11T05:06:17.443Z,973.35
2017-12-11T05:07:17.454Z,973.38
2017-12-11T05:08:17.465Z,973.28
2017-12-11T05:09:17.476Z,973.3
2017-12-11T05:10:17.488Z,973.38
2017-12-11T05:11:17.501Z,973.38
2017-12-11T05:12:17.512Z,973.42
2017-12-11T05:13:17.524Z,973.45
2017-12-11T05:14:17.534Z,973.53
2017-12-11T05:15:17.546Z,973.5
2017-12-11T05:16:17.556Z,973.55
2017-12-11T05:17:17.570Z,973.59
2017-12-11T05:18:17.583Z,973.6
2017-12-11T05:19:17.593Z,973.63
2017-12-11T05:20:17.603Z,973.64
2017-12-11T05:21:17.615Z,973.71
2017-12-11T05:22:17.631Z,973.73
2017-12-11T05:23:17.638Z,973.73
2017-12-11T05:24:17.649Z,973.73
2017-12-11T05:25:17.661Z,973.73
2017-12-11T05:26:17.674Z,973.73
2017-12-11T05:27:17.684Z,973.79
2017-12-11T05:28:17.695Z,973.8
2017-12-11T05:29:17.707Z,973.84
2017-12-11T05:30:17.725Z,973.87
2017-12-11T05:31:17.730Z,973.84
2017-12-11T05:32:17.742Z,973.94
2017-12-11T05:33:17.755Z,973.98
2017-12-11T05:34:17.766Z,973.96
2017-12-11T05:35:17.777Z,973.96
2017-12-11T05:36:17.790Z,973.96
2017-12-11T05:37:17.802Z,973.96
2017-12-11T05:38:17.812Z,974.02
2017-12-11T05:39:17.824Z,974.04
2017-12-11T05:40:17.836Z,974
2017-12-11T05:41:17.845Z,973.97
2017-12-11T05:42:17.858Z,973.98
2017-12-11T05:43:17.873Z,973.99
2017-12-11T05:44:17.882Z,973.98
2017-12-11T05:45:17.893Z,973.93
2017-12-11T05:46:17.905Z,973.9
2017-12-11T05:47:17.916Z,973.89
2017-12-11T05:48:17.933Z,973.9
2017-12-11T05:49:17.939Z,973.92
2017-12-11T05:50:17.951Z,973.91
2017-12-11T05:51:17.965Z,973.89
2017-12-11T05:52:17.975Z,973.86
2017-12-11T05:53:17.986Z,973.91
2017-12-11T05:54:17.996Z,973.89
2017-12-11T05:55:18.011Z,973.91
2017-12-11T05:56:18.024Z,973.89
2017-12-11T05:57:18.033Z,973.89
2017-12-11T05:58:18.043Z,973.88
2017-12-11T05:59:18.056Z,973.91
2017-12-11T06:00:18.067Z,973.9
2017-12-11T06:01:18.086Z,973.98
2017-12-11T06:02:18.090Z,973.92
2017-12-11T06:03:18.101Z,973.92
2017-12-11T06:04:18.114Z,973.96
2017-12-11T06:05:18.127Z,973.99
2017-12-11T06:06:18.137Z,974
2017-12-11T06:07:18.154Z,974.04
2017-12-11T06:08:18.161Z,974.02
2017-12-11T06:09:18.172Z,974.11
2017-12-11T06:10:18.185Z,974.15
2017-12-11T06:11:18.196Z,974.24
2017-12-11T06:12:18.208Z,974.29
2017-12-11T06:13:18.219Z,974.27
2017-12-11T06:14:18.230Z,974.34
2017-12-11T06:15:18.242Z,974.37
2017-12-11T06:16:18.256Z,974.4
2017-12-11T06:17:18.268Z,974.46
2017-12-11T06:18:18.276Z,974.45
2017-12-11T06:19:18.289Z,974.47
2017-12-11T06:20:18.301Z,974.48
2017-12-11T06:21:18.313Z,974.45
2017-12-11T06:22:18.324Z,974.44
2017-12-11T06:23:18.336Z,974.42
2017-12-11T06:24:18.350Z,974.42
2017-12-11T06:25:18.361Z,974.36
2017-12-11T06:26:18.371Z,974.32
2017-12-11T06:27:18.383Z,974.27
2017-12-11T06:28:18.394Z,974.24
2017-12-11T06:29:18.410Z,974.19
2017-12-11T06:30:18.418Z,974.17
2017-12-11T06:31:18.431Z,974.19
2017-12-11T06:32:18.443Z,974.16
2017-12-11T06:33:18.453Z,974.1
2017-12-11T06:34:18.466Z,974.09
2017-12-11T06:35:18.479Z,974.07
2017-12-11T06:36:18.489Z,974.08
2017-12-11T06:37:18.502Z,974.1
2017-12-11T06:38:18.514Z,974.14
2017-12-11T06:39:18.526Z,974.17
2017-12-11T06:40:18.546Z,974.21
2017-12-11T06:41:18.551Z,974.27
2017-12-11T06:42:18.562Z,974.3
2017-12-11T06:43:18.575Z,974.4
2017-12-11T06:44:18.585Z,974.38
2017-12-11T06:45:18.597Z,974.38
2017-12-11T06:46:18.609Z,974.43
2017-12-11T06:47:18.619Z,974.46
2017-12-11T06:48:18.637Z,974.44
2017-12-11T06:49:18.654Z,974.48
2017-12-11T06:50:18.777Z,974.5
2017-12-11T06:51:18.674Z,974.49
2017-12-11T06:52:18.678Z,974.47
2017-12-11T06:53:18.691Z,974.5
2017-12-11T06:54:18.747Z,974.46
2017-12-11T06:55:18.714Z,974.38
2017-12-11T06:56:18.726Z,974.34
2017-12-11T06:57:18.739Z,974.27
2017-12-11T06:58:18.750Z,974.33
2017-12-11T06:59:18.767Z,974.33
2017-12-11T07:00:18.782Z,974.4
2017-12-11T07:01:18.787Z,974.44
2017-12-11T07:02:18.798Z,974.45
2017-12-11T07:03:18.832Z,974.47
2017-12-11T07:04:18.823Z,974.5
2017-12-11T07:05:18.832Z,974.53
2017-12-11T07:06:18.846Z,974.63
2017-12-11T07:07:18.858Z,974.62
2017-12-11T07:08:18.870Z,974.64
2017-12-11T07:09:18.881Z,974.66
2017-12-11T07:10:18.893Z,974.67
2017-12-11T07:11:18.913Z,974.67
2017-12-11T07:12:18.917Z,974.7
2017-12-11T07:13:18.933Z,974.64
2017-12-11T07:14:18.941Z,974.66
2017-12-11T07:15:18.953Z,974.65
2017-12-11T07:16:18.965Z,974.63
2017-12-11T07:17:18.977Z,974.71
2017-12-11T07:18:18.988Z,974.72
2017-12-11T07:19:19.000Z,974.72
2017-12-11T07:20:19.014Z,974.83
2017-12-11T07:21:19.023Z,974.91
2017-12-11T07:22:19.037Z,974.91
2017-12-11T07:23:19.049Z,974.89
2017-12-11T07:24:19.060Z,974.86
2017-12-11T07:25:19.073Z,974.86
2017-12-11T07:26:19.084Z,974.82
2017-12-11T07:27:19.099Z,974.82
2017-12-11T07:28:19.107Z,974.8
2017-12-11T07:29:19.127Z,974.77
2017-12-11T07:30:19.137Z,974.84
2017-12-11T07:31:19.146Z,974.9
2017-12-11T07:32:19.158Z,974.92
2017-12-11T07:33:19.168Z,974.87
2017-12-11T07:34:19.182Z,974.89
2017-12-11T07:35:19.191Z,974.85
2017-12-11T07:36:19.206Z,974.8
2017-12-11T07:37:19.220Z,974.75
2017-12-11T07:38:19.227Z,974.76
2017-12-11T07:39:19.242Z,974.81
2017-12-11T07:40:19.296Z,974.77
2017-12-11T07:41:19.265Z,974.78
2017-12-11T07:42:19.276Z,974.78
2017-12-11T07:43:19.291Z,974.75
2017-12-11T07:44:19.304Z,974.63
2017-12-11T07:45:19.314Z,974.61
2017-12-11T07:46:19.326Z,974.58
2017-12-11T07:47:19.337Z,974.56
2017-12-11T07:48:19.350Z,974.6
2017-12-11T07:49:19.361Z,974.68
2017-12-11T07:50:19.372Z,974.74
2017-12-11T07:51:19.384Z,974.76
2017-12-11T07:52:19.398Z,974.76
2017-12-11T07:53:19.410Z,974.75
2017-12-11T07:54:19.421Z,974.79
2017-12-11T07:55:19.433Z,974.84
2017-12-11T07:56:19.445Z,974.9
2017-12-11T07:57:19.458Z,974.9
2017-12-11T07:58:19.470Z,974.87
2017-12-11T07:59:19.484Z,974.86
2017-12-11T08:00:19.493Z,974.85
2017-12-11T08:01:19.505Z,974.77
2017-12-11T08:02:19.517Z,974.74
2017-12-11T08:03:19.530Z,974.71
2017-12-11T08:04:19.541Z,974.69
2017-12-11T08:05:19.554Z,974.72
2017-12-11T08:06:19.566Z,974.76
2017-12-11T08:07:19.581Z,974.87
2017-12-11T08:08:19.591Z,974.95
2017-12-11T08:09:19.604Z,975.02
2017-12-11T08:10:19.623Z,975.03
2017-12-11T08:11:19.629Z,975.07
2017-12-11T08:12:19.642Z,975.08
2017-12-11T08:13:19.653Z,975.09
2017-12-11T08:14:19.665Z,975.1
2017-12-11T08:15:19.681Z,975.12
2017-12-11T08:16:19.691Z,975.1
2017-12-11T08:17:19.702Z,975.08
2017-12-11T08:18:19.713Z,975.01
2017-12-11T08:19:19.726Z,975.02
2017-12-11T08:20:19.738Z,975.03
2017-12-11T08:21:19.752Z,975.02
2017-12-11T08:22:19.762Z,975.13
2017-12-11T08:23:19.775Z,975.13
2017-12-11T08:24:19.786Z,975.17
2017-12-11T08:25:19.799Z,975.14
2017-12-11T08:26:19.810Z,975.1
2017-12-11T08:27:19.824Z,975.14
2017-12-11T08:28:19.835Z,975.16
2017-12-11T08:29:19.848Z,975.13
2017-12-11T08:30:19.861Z,975.11
2017-12-11T08:31:19.874Z,975.06
2017-12-11T08:32:19.917Z,975.04
2017-12-11T08:33:19.897Z,975
2017-12-11T08:34:19.910Z,974.99
2017-12-11T08:35:19.923Z,974.98
2017-12-11T08:36:19.936Z,974.98
2017-12-11T08:37:19.947Z,975
2017-12-11T08:38:19.960Z,974.98
2017-12-11T08:39:19.978Z,975
2017-12-11T08:40:19.984Z,975.05
2017-12-11T08:41:19.995Z,975.05
2017-12-11T08:42:20.026Z,975.03
2017-12-11T08:43:20.022Z,974.97
2017-12-11T08:44:20.033Z,974.98
2017-12-11T08:45:20.045Z,974.95
2017-12-11T08:46:20.059Z,975.04
2017-12-11T08:47:20.070Z,975.07
2017-12-11T08:48:20.082Z,975.11
2017-12-11T08:49:20.094Z,975.13
2017-12-11T08:50:20.106Z,975.18
2017-12-11T08:51:20.119Z,975.16
2017-12-11T08:52:20.131Z,975.15
2017-12-11T08:53:20.144Z,975.19
2017-12-11T08:54:20.156Z,975.15
2017-12-11T08:55:20.169Z,975.12
2017-12-11T08:56:20.180Z,975.08
2017-12-11T08:57:20.194Z,975.11
2017-12-11T08:58:20.207Z,975.1
2017-12-11T08:59:20.219Z,975.11
2017-12-11T09:00:20.230Z,975.11
2017-12-11T09:01:20.245Z,975.12
2017-12-11T09:02:20.256Z,975.13
2017-12-11T09:03:20.270Z,975.14
2017-12-11T09:04:20.284Z,975.13
2017-12-11T09:05:20.293Z,975.13
2017-12-11T09:06:20.304Z,975.12
2017-12-11T09:07:20.318Z,975.17
2017-12-11T09:08:20.331Z,975.17
2017-12-11T09:09:20.345Z,975.11
2017-12-11T09:10:20.357Z,975.16
2017-12-11T09:11:20.367Z,975.16
2017-12-11T09:12:20.386Z,975.16
2017-12-11T09:13:20.393Z,975.18
2017-12-11T09:14:20.404Z,975.21
2017-12-11T09:15:20.419Z,975.2
2017-12-11T09:16:20.432Z,975.18
2017-12-11T09:17:20.444Z,975.2
2017-12-11T09:18:20.454Z,975.19
2017-12-11T09:19:20.468Z,975.14
2017-12-11T09:20:20.483Z,975.1
2017-12-11T09:21:20.494Z,975.06
2017-12-11T09:22:20.506Z,975.03
2017-12-11T09:23:20.517Z,975.03
2017-12-11T09:24:20.531Z,974.99
2017-12-11T09:25:20.546Z,974.98
2017-12-11T09:26:20.556Z,974.99
2017-12-11T09:27:20.569Z,974.96
2017-12-11T09:28:20.584Z,974.92
2017-12-11T09:29:20.597Z,974.92
2017-12-11T09:30:20.606Z,974.89
2017-12-11T09:31:20.621Z,974.78
2017-12-11T09:32:20.631Z,974.76
2017-12-11T09:33:20.651Z,974.8
2017-12-11T09:34:20.659Z,974.76
2017-12-11T09:35:20.670Z,974.74
2017-12-11T09:36:20.883Z,974.74
2017-12-11T09:37:20.695Z,974.72
2017-12-11T09:38:20.708Z,974.7
2017-12-11T09:39:20.721Z,974.75
2017-12-11T09:40:20.733Z,974.74
2017-12-11T09:41:20.749Z,974.77
2017-12-11T09:42:20.757Z,974.71
2017-12-11T09:43:20.771Z,974.7
2017-12-11T09:44:20.785Z,974.75
2017-12-11T09:45:20.803Z,974.76
2017-12-11T09:46:20.873Z,974.7
2017-12-11T09:47:20.823Z,974.72
2017-12-11T09:48:20.835Z,974.73
2017-12-11T09:49:20.850Z,974.73
2017-12-11T09:50:20.861Z,974.76
2017-12-11T09:51:20.872Z,974.74
2017-12-11T09:52:20.886Z,974.76
2017-12-11T09:53:20.897Z,974.76
2017-12-11T09:54:20.910Z,974.79
2017-12-11T09:55:20.927Z,974.84
2017-12-11T09:56:20.940Z,974.81
2017-12-11T09:57:20.949Z,974.83
2017-12-11T09:58:20.962Z,974.79
2017-12-11T09:59:20.975Z,974.77
2017-12-11T10:00:20.988Z,974.74
2017-12-11T10:01:20.999Z,974.72
2017-12-11T10:02:21.013Z,974.73
2017-12-11T10:03:21.026Z,974.76
2017-12-11T10:04:21.037Z,974.73
2017-12-11T10:05:21.051Z,974.76
2017-12-11T10:06:21.063Z,974.82
2017-12-11T10:07:21.078Z,974.84
2017-12-11T10:08:21.090Z,974.81
2017-12-11T10:09:21.104Z,974.8
2017-12-11T10:10:21.115Z,974.76
2017-12-11T10:11:21.127Z,974.72
2017-12-11T10:12:21.143Z,974.67
2017-12-11T10:13:21.154Z,974.64
2017-12-11T10:14:21.167Z,974.67
2017-12-11T10:15:21.179Z,974.65
2017-12-11T10:16:21.194Z,974.63
2017-12-11T10:17:21.204Z,974.65
2017-12-11T10:18:21.218Z,974.64
2017-12-11T10:19:21.232Z,974.6
2017-12-11T10:20:21.242Z,974.55
2017-12-11T10:21:21.258Z,974.45
2017-12-11T10:22:21.269Z,974.43
2017-12-11T10:23:21.281Z,974.39
2017-12-11T10:24:21.296Z,974.39
2017-12-11T10:25:21.310Z,974.39
2017-12-11T10:26:21.321Z,974.38
2017-12-11T10:27:21.333Z,974.36
2017-12-11T10:28:21.346Z,974.35
2017-12-11T10:29:21.362Z,974.27
2017-12-11T10:30:21.371Z,974.24
2017-12-11T10:31:21.385Z,974.21
2017-12-11T10:32:21.398Z,974.13
2017-12-11T10:33:21.412Z,974.09
2017-12-11T10:34:21.424Z,974.11
2017-12-11T10:35:21.437Z,974.12
2017-12-11T10:36:21.458Z,974.14
2017-12-11T10:37:21.461Z,974.14
2017-12-11T10:38:21.474Z,974.16
2017-12-11T10:39:21.489Z,974.13
2017-12-11T10:40:21.502Z,974.16
2017-12-11T10:41:21.513Z,974.2
2017-12-11T10:42:21.526Z,974.14
2017-12-11T10:43:21.542Z,974.08
2017-12-11T10:44:21.554Z,974.01
2017-12-11T10:45:21.567Z,973.96
2017-12-11T10:46:21.579Z,973.97
2017-12-11T10:47:21.592Z,973.89
2017-12-11T10:48:21.605Z,973.89
2017-12-11T10:49:21.618Z,973.94
2017-12-11T10:50:21.631Z,973.96
2017-12-11T10:51:21.644Z,973.96
2017-12-11T10:52:21.656Z,973.94
2017-12-11T10:53:21.670Z,973.9
2017-12-11T10:54:21.682Z,973.87
2017-12-11T10:55:21.701Z,973.9
2017-12-11T10:56:21.707Z,973.93
2017-12-11T10:57:21.724Z,973.89
2017-12-11T10:58:21.734Z,973.92
2017-12-11T10:59:21.747Z,973.91
2017-12-11T11:00:21.760Z,973.94
2017-12-11T11:01:21.773Z,973.96
2017-12-11T11:02:21.785Z,973.94
2017-12-11T11:03:21.799Z,973.92
2017-12-11T11:04:21.814Z,973.94
2017-12-11T11:05:21.827Z,973.91
2017-12-11T11:06:21.838Z,973.9
2017-12-11T11:07:21.859Z,973.86
2017-12-11T11:08:21.864Z,973.9
2017-12-11T11:09:21.878Z,973.99
2017-12-11T11:10:21.890Z,974.07
2017-12-11T11:11:21.905Z,974.04
2017-12-11T11:12:21.917Z,974.01
2017-12-11T11:13:21.932Z,973.91
2017-12-11T11:14:21.943Z,973.89
2017-12-11T11:15:21.963Z,973.88
2017-12-11T11:16:21.972Z,973.84
2017-12-11T11:17:21.983Z,973.88
2017-12-11T11:18:21.996Z,973.81
2017-12-11T11:19:22.010Z,973.86
2017-12-11T11:20:22.027Z,973.93
2017-12-11T11:21:22.036Z,973.89
2017-12-11T11:22:22.050Z,973.87
2017-12-11T11:23:22.062Z,973.87
2017-12-11T11:24:22.075Z,973.84
2017-12-11T11:25:22.088Z,973.84
2017-12-11T11:26:22.101Z,973.8
2017-12-11T11:27:22.115Z,973.84
2017-12-11T11:28:22.128Z,973.86
2017-12-11T11:29:22.142Z,973.85
2017-12-11T11:30:22.155Z,973.8
2017-12-11T11:31:22.175Z,973.7
2017-12-11T11:32:22.180Z,973.61
2017-12-11T11:33:22.192Z,973.55
2017-12-11T11:34:22.206Z,973.53
2017-12-11T11:35:22.221Z,973.53
2017-12-11T11:36:22.234Z,973.55
2017-12-11T11:37:22.247Z,973.53
2017-12-11T11:38:22.262Z,973.48
2017-12-11T11:39:22.273Z,973.4
2017-12-11T11:40:22.284Z,973.4
2017-12-11T11:41:22.300Z,973.34
2017-12-11T11:42:22.312Z,973.29
2017-12-11T11:43:22.324Z,973.21
2017-12-11T11:44:22.339Z,973.18
2017-12-11T11:45:22.352Z,973.18
2017-12-11T11:46:22.366Z,973.16
2017-12-11T11:47:22.377Z,973.15
2017-12-11T11:48:22.391Z,973.19
2017-12-11T11:49:22.407Z,973.24
2017-12-11T11:50:22.417Z,973.26
2017-12-11T11:51:22.434Z,973.19
2017-12-11T11:52:22.443Z,973.16
2017-12-11T11:53:22.459Z,973.04
2017-12-11T11:54:22.471Z,973.03
2017-12-11T11:55:22.484Z,972.95
2017-12-11T11:56:22.497Z,972.9
2017-12-11T11:57:22.512Z,972.91
2017-12-11T11:58:22.523Z,972.91
2017-12-11T11:59:22.537Z,972.87
2017-12-11T12:00:22.552Z,972.92
2017-12-11T12:01:22.563Z,972.91
2017-12-11T12:02:22.582Z,972.92
2017-12-11T12:03:22.591Z,972.93
2017-12-11T12:04:22.604Z,972.92
2017-12-11T12:05:22.616Z,972.88
2017-12-11T12:06:22.630Z,972.8
2017-12-11T12:07:22.645Z,972.8
2017-12-11T12:08:22.658Z,972.8
2017-12-11T12:09:22.670Z,972.79
2017-12-11T12:10:22.686Z,972.76
2017-12-11T12:11:22.697Z,972.64
2017-12-11T12:12:22.709Z,972.59
2017-12-11T12:13:22.723Z,972.57
2017-12-11T12:14:22.738Z,972.57
2017-12-11T12:15:22.749Z,972.59
2017-12-11T12:16:22.764Z,972.58
2017-12-11T12:17:22.776Z,972.55
2017-12-11T12:18:22.788Z,972.55
2017-12-11T12:19:22.803Z,972.6
2017-12-11T12:20:22.815Z,972.47
2017-12-11T12:21:22.829Z,972.46
2017-12-11T12:22:22.842Z,972.42
2017-12-11T12:23:22.855Z,972.51
2017-12-11T12:24:22.869Z,972.56
2017-12-11T12:25:22.884Z,972.55
2017-12-11T12:26:22.896Z,972.57
2017-12-11T12:27:22.909Z,972.47
2017-12-11T12:28:22.922Z,972.47
2017-12-11T12:29:22.940Z,972.41
2017-12-11T12:30:22.950Z,972.42
2017-12-11T12:31:22.964Z,972.41